Rechercher aéroport 
image banner adimage banner adimage banner ad
image banner ad

10CN - St Helena Hospital

Situé à St Helena, United States

ICAO - 10CN, IATA -

Données fournies par Airmate  

Information générale

Coordonnées: N38°32'36" W122°28'30"
Élévation : 581 feet MSL.
 
Voir autres Aéroports à California

Données opérationnelles

Special qualification required
Heure actuelle UTC:
Heure actuelle locale:
METAR: KSTS 300053Z 16010KT 10SM CLR 26/13 A2986 RMK AO2 SLP106 T02610128
TAF: KSTS 292339Z 3000/3024 17012KT P6SM FEW180 FM300500 16008KT P6SM FEW150 FM300900 00000KT P6SM BKN008 TEMPO 3011/3013 OVC005 FM301630 VRB03KT P6SM FEW150 FM302100 17012KT P6SM BKN200
Voir NOTAMs / SUP AIP / TFR affectant cet aéroport [VIEW]
Fréquences de communication: [VIEW]

Pistes:

Coordonnées de l'aéroport

Adresse: St Helena United States

Vue satellite de 10CN